createdAt,value
2022-09-25T00:00:02.133Z,0.60
2022-09-25T00:02:28.613Z,1.00
2022-09-25T00:04:55.117Z,0.93
2022-09-25T00:07:21.552Z,1.27
2022-09-25T00:09:47.997Z,0.77
2022-09-25T00:12:14.480Z,0.90
2022-09-25T00:14:40.904Z,0.52
2022-09-25T00:17:07.367Z,0.65
2022-09-25T00:19:33.826Z,0.40
2022-09-25T00:22:00.283Z,0.30
2022-09-25T00:24:26.724Z,0.30
2022-09-25T00:26:53.170Z,0.30
2022-09-25T00:29:19.601Z,0.35
2022-09-25T00:31:46.051Z,0.20
2022-09-25T00:34:12.587Z,0.30
2022-09-25T00:36:39.089Z,0.22
2022-09-25T00:39:05.530Z,0.22
2022-09-25T00:41:32.030Z,0.30
2022-09-25T00:43:58.508Z,0.40
2022-09-25T00:46:25.017Z,0.55
2022-09-25T00:48:51.507Z,0.25
2022-09-25T00:51:17.961Z,0.38
2022-09-25T00:53:44.392Z,0.60
2022-09-25T00:56:10.841Z,0.50
2022-09-25T00:58:37.274Z,0.77
2022-09-25T01:01:03.799Z,0.50
2022-09-25T01:03:30.281Z,1.15
2022-09-25T01:05:56.719Z,0.80
2022-09-25T01:08:23.147Z,1.13
2022-09-25T01:10:49.581Z,1.00
2022-09-25T01:13:16.025Z,1.00
2022-09-25T01:15:42.474Z,1.00
2022-09-25T01:18:08.900Z,0.88
2022-09-25T01:20:35.317Z,1.00
2022-09-25T01:23:01.753Z,0.90
2022-09-25T01:25:28.178Z,1.20
2022-09-25T01:27:54.627Z,1.10
2022-09-25T01:30:21.061Z,1.13
2022-09-25T01:32:47.491Z,1.10
2022-09-25T01:35:13.922Z,1.00
2022-09-25T01:37:40.360Z,1.15
2022-09-25T01:40:06.803Z,1.00
2022-09-25T01:42:33.259Z,1.05
2022-09-25T01:44:59.703Z,1.02
2022-09-25T01:47:26.126Z,1.35
2022-09-25T01:49:52.569Z,0.93
2022-09-25T01:52:18.996Z,1.15
2022-09-25T01:54:45.438Z,1.10
2022-09-25T01:57:11.858Z,1.35
2022-09-25T01:59:38.312Z,1.25
2022-09-25T02:02:04.836Z,1.10
2022-09-25T02:04:31.310Z,1.20
2022-09-25T02:06:57.740Z,1.20
2022-09-25T02:09:24.199Z,1.00
2022-09-25T02:11:50.646Z,1.17
2022-09-25T02:14:17.082Z,1.20
2022-09-25T02:16:43.618Z,1.20
2022-09-25T02:19:10.184Z,1.10
2022-09-25T02:21:36.613Z,0.90
2022-09-25T02:24:03.202Z,1.10
2022-09-25T02:26:29.724Z,0.80
2022-09-25T02:28:56.222Z,0.68
2022-09-25T02:31:22.634Z,1.08
2022-09-25T02:33:49.049Z,0.75
2022-09-25T02:36:15.492Z,0.80
2022-09-25T02:38:41.910Z,0.60
2022-09-25T02:41:08.381Z,0.65
2022-09-25T02:43:34.801Z,0.60
2022-09-25T02:46:01.308Z,0.50
2022-09-25T02:48:27.769Z,0.55
2022-09-25T02:50:54.218Z,0.52
2022-09-25T02:53:20.652Z,0.70
2022-09-25T02:55:47.095Z,0.50
2022-09-25T02:58:13.525Z,0.73
2022-09-25T03:00:39.967Z,0.88
2022-09-25T03:03:06.388Z,0.57
2022-09-25T03:05:32.820Z,0.50
2022-09-25T03:07:59.258Z,0.30
2022-09-25T03:10:25.703Z,0.40
2022-09-25T03:12:52.128Z,0.70
2022-09-25T03:15:18.568Z,0.60
2022-09-25T03:17:45.005Z,0.70
2022-09-25T03:20:11.465Z,0.70
2022-09-25T03:22:37.914Z,0.68
2022-09-25T03:25:04.343Z,0.70
2022-09-25T03:27:30.786Z,0.80
2022-09-25T03:29:57.210Z,0.88
2022-09-25T03:32:23.637Z,0.88
2022-09-25T03:34:50.251Z,0.65
2022-09-25T03:37:16.736Z,0.70
2022-09-25T03:39:43.181Z,0.70
2022-09-25T03:42:09.631Z,0.57
2022-09-25T03:44:36.084Z,1.10
2022-09-25T03:47:02.516Z,1.00
2022-09-25T03:49:28.955Z,0.60
2022-09-25T03:51:55.424Z,0.88
2022-09-25T03:54:21.881Z,0.60
2022-09-25T03:56:48.796Z,0.80
2022-09-25T03:59:15.230Z,0.47
2022-09-25T04:01:41.719Z,0.60
2022-09-25T04:04:08.178Z,0.50
2022-09-25T04:06:34.601Z,0.60
2022-09-25T04:09:01.038Z,0.30
2022-09-25T04:11:27.486Z,0.40
2022-09-25T04:13:53.925Z,0.52
2022-09-25T04:16:20.399Z,0.52
2022-09-25T04:18:46.848Z,0.52
2022-09-25T04:21:13.304Z,0.40
2022-09-25T04:23:39.737Z,0.40
2022-09-25T04:26:06.194Z,0.32
2022-09-25T04:28:32.630Z,0.40
2022-09-25T04:30:59.236Z,0.20
2022-09-25T04:33:25.754Z,0.40
2022-09-25T04:35:52.206Z,0.22
2022-09-25T04:38:18.626Z,0.30
2022-09-25T04:40:45.086Z,0.20
2022-09-25T04:43:11.552Z,0.73
2022-09-25T04:45:37.991Z,0.50
2022-09-25T04:48:04.428Z,0.63
2022-09-25T04:50:30.867Z,0.38
2022-09-25T04:52:57.301Z,0.47
2022-09-25T04:55:23.731Z,0.20
2022-09-25T04:57:59.145Z,0.57
2022-09-25T05:00:25.839Z,0.40
2022-09-25T05:02:52.340Z,0.43
2022-09-25T05:05:18.823Z,0.38
2022-09-25T05:07:45.268Z,0.25
2022-09-25T05:10:11.688Z,0.40
2022-09-25T05:12:38.125Z,0.20
2022-09-25T05:15:04.561Z,0.32
2022-09-25T05:17:31.019Z,0.25
2022-09-25T05:19:57.456Z,0.20
2022-09-25T05:22:23.912Z,0.30
2022-09-25T05:24:53.022Z,0.20
2022-09-25T05:27:21.726Z,0.30
2022-09-25T05:29:48.234Z,0.20
2022-09-25T05:32:14.690Z,0.38
2022-09-25T05:34:41.136Z,0.52
2022-09-25T05:37:07.576Z,0.40
2022-09-25T05:39:34.029Z,0.30
2022-09-25T05:42:00.473Z,0.22
2022-09-25T05:44:26.900Z,0.50
2022-09-25T05:46:53.336Z,0.30
2022-09-25T05:49:19.774Z,0.30
2022-09-25T05:51:46.198Z,0.40
2022-09-25T05:54:12.784Z,0.30
2022-09-25T05:56:39.335Z,0.60
2022-09-25T05:59:05.766Z,0.20
2022-09-25T06:01:32.238Z,0.47
2022-09-25T06:03:58.690Z,0.40
2022-09-25T06:06:27.498Z,0.30
2022-09-25T06:08:54.184Z,0.30
2022-09-25T06:11:20.596Z,0.40
2022-09-25T06:13:50.737Z,0.20
2022-09-25T06:16:20.021Z,0.47
2022-09-25T06:18:46.508Z,0.40
2022-09-25T06:21:12.934Z,0.30
2022-09-25T06:23:39.407Z,0.30
2022-09-25T06:26:05.866Z,0.30
2022-09-25T06:28:32.319Z,0.40
2022-09-25T06:30:58.828Z,0.30
2022-09-25T06:33:25.316Z,0.50
2022-09-25T06:35:51.734Z,0.45
2022-09-25T06:38:18.178Z,0.30
2022-09-25T06:40:45.459Z,0.25
2022-09-25T06:43:12.015Z,0.20
2022-09-25T06:45:38.454Z,0.20
2022-09-25T06:48:04.918Z,0.22
2022-09-25T06:50:31.366Z,0.40
2022-09-25T06:52:57.796Z,0.60
2022-09-25T06:55:24.218Z,0.68
2022-09-25T06:57:50.654Z,0.50
2022-09-25T07:00:17.087Z,0.60
2022-09-25T07:02:43.592Z,0.70
2022-09-25T07:05:10.047Z,0.50
2022-09-25T07:07:36.485Z,0.60
2022-09-25T07:10:02.909Z,0.40
2022-09-25T07:12:29.354Z,0.70
2022-09-25T07:14:55.772Z,0.82
2022-09-25T07:17:22.211Z,0.80
2022-09-25T07:19:48.655Z,0.70
2022-09-25T07:22:15.107Z,0.60
2022-09-25T07:24:41.549Z,0.88
2022-09-25T07:27:07.989Z,0.90
2022-09-25T07:29:34.571Z,0.75
2022-09-25T07:32:00.991Z,1.52
2022-09-25T07:34:27.444Z,1.25
2022-09-25T07:36:53.863Z,1.20
2022-09-25T07:39:20.311Z,1.45
2022-09-25T07:41:46.748Z,1.10
2022-09-25T07:44:30.204Z,1.10
2022-09-25T07:46:59.638Z,1.23
2022-09-25T07:49:26.089Z,1.10
2022-09-25T07:51:52.529Z,1.23
2022-09-25T07:54:18.983Z,0.90
2022-09-25T07:56:45.421Z,0.95
2022-09-25T07:59:11.868Z,0.90
2022-09-25T08:01:42.813Z,1.15
2022-09-25T08:04:11.269Z,0.57
2022-09-25T08:06:37.763Z,0.80
2022-09-25T08:09:09.520Z,0.90
2022-09-25T08:11:36.954Z,1.10
2022-09-25T08:14:03.406Z,1.40
2022-09-25T08:16:29.839Z,1.27
2022-09-25T08:18:56.270Z,1.20
2022-09-25T08:21:22.699Z,1.00
2022-09-25T08:23:49.156Z,1.50
2022-09-25T08:26:15.582Z,1.27
2022-09-25T08:28:42.033Z,1.10
2022-09-25T08:31:08.507Z,0.80
2022-09-25T08:33:34.973Z,0.80
2022-09-25T08:36:01.415Z,0.95
2022-09-25T08:38:27.854Z,1.20
2022-09-25T08:40:54.336Z,1.20
2022-09-25T08:43:20.802Z,0.82
2022-09-25T08:45:47.342Z,0.90
2022-09-25T08:48:13.831Z,0.82
2022-09-25T08:50:40.253Z,0.75
2022-09-25T08:53:06.684Z,1.10
2022-09-25T08:55:33.130Z,1.00
2022-09-25T08:57:59.566Z,0.55
2022-09-25T09:00:26.015Z,0.70
2022-09-25T09:02:52.487Z,0.82
2022-09-25T09:05:18.963Z,0.70
2022-09-25T09:07:45.403Z,0.65
2022-09-25T09:10:11.837Z,0.57
2022-09-25T09:12:38.276Z,0.60
2022-09-25T09:15:04.729Z,0.45
2022-09-25T09:17:31.148Z,0.80
2022-09-25T09:19:57.575Z,0.50
2022-09-25T09:22:23.992Z,0.60
2022-09-25T09:24:50.433Z,0.80
2022-09-25T09:27:16.870Z,0.38
2022-09-25T09:29:43.308Z,0.50
2022-09-25T09:32:09.746Z,0.50
2022-09-25T09:35:01.170Z,0.50
2022-09-25T09:37:22.621Z,0.43
2022-09-25T09:39:49.072Z,0.28
2022-09-25T09:42:15.496Z,0.30
2022-09-25T09:44:41.929Z,0.10
2022-09-25T09:47:08.381Z,0.10
2022-09-25T09:49:34.826Z,0.30
2022-09-25T09:52:01.273Z,0.20
2022-09-25T09:54:27.739Z,0.10
2022-09-25T09:56:54.167Z,0.52
2022-09-25T09:59:20.589Z,0.60
2022-09-25T10:01:47.129Z,0.50
2022-09-25T10:04:13.864Z,0.52
2022-09-25T10:06:40.436Z,0.30
2022-09-25T10:09:06.880Z,0.40
2022-09-25T10:11:33.315Z,0.38
2022-09-25T10:13:59.842Z,0.40
2022-09-25T10:16:26.253Z,0.20
2022-09-25T10:18:52.690Z,0.38
2022-09-25T10:21:19.113Z,0.20
2022-09-25T10:23:45.580Z,0.40
2022-09-25T10:26:12.004Z,0.63
2022-09-25T10:28:38.436Z,0.20
2022-09-25T10:31:04.899Z,0.57
2022-09-25T10:33:31.349Z,0.50
2022-09-25T10:35:57.768Z,0.88
2022-09-25T10:38:24.230Z,0.50
2022-09-25T10:40:50.830Z,0.80
2022-09-25T10:43:17.326Z,0.70
2022-09-25T10:45:43.792Z,0.60
2022-09-25T10:48:10.232Z,0.45
2022-09-25T10:50:36.679Z,0.82
2022-09-25T10:53:03.106Z,0.60
2022-09-25T10:55:29.538Z,0.52
2022-09-25T10:57:55.954Z,0.40
2022-09-25T11:00:22.384Z,0.60
2022-09-25T11:02:48.868Z,0.47
2022-09-25T11:05:15.419Z,0.52
2022-09-25T11:07:41.859Z,0.68
2022-09-25T11:10:08.323Z,0.30
2022-09-25T11:12:34.759Z,0.80
2022-09-25T11:15:01.195Z,0.40
2022-09-25T11:17:27.633Z,0.60
2022-09-25T11:19:54.066Z,0.45
2022-09-25T11:22:20.494Z,0.40
2022-09-25T11:24:46.935Z,0.65
2022-09-25T11:27:13.377Z,0.40
2022-09-25T11:29:39.836Z,0.52
2022-09-25T11:32:06.308Z,0.40
2022-09-25T11:34:32.732Z,0.98
2022-09-25T11:36:59.168Z,0.93
2022-09-25T11:39:25.606Z,0.50
2022-09-25T11:41:52.047Z,0.73
2022-09-25T11:44:18.468Z,0.30
2022-09-25T11:46:44.892Z,0.30
2022-09-25T11:49:12.311Z,0.20
2022-09-25T11:51:39.064Z,0.50
2022-09-25T11:54:25.244Z,0.20
2022-09-25T11:56:51.911Z,0.57
2022-09-25T11:59:18.342Z,0.40
2022-09-25T12:01:44.805Z,0.68
2022-09-25T12:04:11.378Z,0.30
2022-09-25T12:06:37.846Z,0.55
2022-09-25T12:09:04.302Z,0.45
2022-09-25T12:11:30.727Z,0.28
2022-09-25T12:13:57.172Z,0.60
2022-09-25T12:16:23.645Z,0.47
2022-09-25T12:18:50.124Z,0.40
2022-09-25T12:21:16.541Z,0.20
2022-09-25T12:23:42.949Z,0.40
2022-09-25T12:26:09.388Z,0.30
2022-09-25T12:28:35.823Z,0.47
2022-09-25T12:31:05.457Z,0.30
2022-09-25T12:33:32.242Z,0.50
2022-09-25T12:35:58.692Z,0.20
2022-09-25T12:38:25.122Z,0.47
2022-09-25T12:40:51.603Z,0.20
2022-09-25T12:43:18.044Z,0.63
2022-09-25T12:45:44.558Z,0.10
2022-09-25T12:48:11.033Z,0.20
2022-09-25T12:50:37.449Z,0.10
2022-09-25T12:53:03.888Z,0.40
2022-09-25T12:55:30.316Z,0.20
2022-09-25T12:57:56.747Z,0.30
2022-09-25T13:00:23.173Z,0.30
2022-09-25T13:02:49.627Z,0.10
2022-09-25T13:05:21.373Z,0.28
2022-09-25T13:07:48.337Z,0.20
2022-09-25T13:10:14.748Z,0.60
2022-09-25T13:12:41.194Z,0.52
2022-09-25T13:15:07.615Z,0.60
2022-09-25T13:17:34.036Z,0.35
2022-09-25T13:20:00.502Z,0.57
2022-09-25T13:22:26.933Z,0.40
2022-09-25T13:24:53.374Z,0.40
2022-09-25T13:27:23.241Z,0.30
2022-09-25T13:29:51.850Z,0.35
2022-09-25T13:32:18.293Z,0.45
2022-09-25T13:34:44.728Z,0.63
2022-09-25T13:37:11.151Z,0.50
2022-09-25T13:39:37.594Z,0.70
2022-09-25T13:42:04.064Z,0.50
2022-09-25T13:44:30.505Z,0.55
2022-09-25T13:46:56.939Z,0.40
2022-09-25T13:49:23.361Z,0.32
2022-09-25T13:51:49.790Z,0.50
2022-09-25T13:54:16.216Z,0.20
2022-09-25T13:56:42.650Z,0.40
2022-09-25T13:59:09.068Z,0.65
2022-09-25T14:01:35.523Z,0.40
2022-09-25T14:04:01.955Z,1.17
2022-09-25T14:06:29.978Z,0.50
2022-09-25T14:08:57.028Z,0.50
2022-09-25T14:11:23.489Z,0.20
2022-09-25T14:13:49.925Z,0.47
2022-09-25T14:16:16.414Z,0.52
2022-09-25T14:18:42.887Z,0.40
2022-09-25T14:21:09.309Z,0.70
2022-09-25T14:23:35.739Z,0.35
2022-09-25T14:26:02.158Z,0.20
2022-09-25T14:28:28.583Z,0.30
2022-09-25T14:30:54.992Z,0.10
2022-09-25T14:33:21.431Z,0.20
2022-09-25T14:35:47.862Z,0.20
2022-09-25T14:38:14.288Z,0.25
2022-09-25T14:40:40.754Z,0.38
2022-09-25T14:43:07.214Z,0.40
2022-09-25T14:45:33.686Z,0.40
2022-09-25T14:48:00.133Z,0.40
2022-09-25T14:50:26.565Z,0.40
2022-09-25T14:52:52.996Z,0.30
2022-09-25T14:55:19.430Z,0.40
2022-09-25T14:57:45.863Z,0.10
2022-09-25T15:00:12.282Z,0.20
2022-09-25T15:02:38.817Z,0.50
2022-09-25T15:05:05.390Z,0.13
2022-09-25T15:07:31.819Z,0.20
2022-09-25T15:09:58.229Z,0.50
2022-09-25T15:12:24.649Z,0.40
2022-09-25T15:14:51.065Z,0.30
2022-09-25T15:17:17.493Z,0.40
2022-09-25T15:19:43.909Z,0.68
2022-09-25T15:22:10.342Z,0.40
2022-09-25T15:24:36.760Z,0.40
2022-09-25T15:27:03.202Z,0.30
2022-09-25T15:29:29.626Z,0.30
2022-09-25T15:31:56.041Z,0.43
2022-09-25T15:34:22.515Z,0.30
2022-09-25T15:36:48.946Z,0.30
2022-09-25T15:39:15.504Z,0.20
2022-09-25T15:41:41.942Z,0.65
2022-09-25T15:44:08.482Z,0.10
2022-09-25T15:46:35.095Z,0.20
2022-09-25T15:49:01.519Z,0.10
2022-09-25T15:51:27.948Z,0.10
2022-09-25T15:53:54.383Z,0.10
2022-09-25T15:56:20.800Z,0.20
2022-09-25T15:58:47.249Z,0.20
2022-09-25T16:01:13.742Z,0.20
2022-09-25T16:03:40.268Z,0.28
2022-09-25T16:06:06.684Z,0.10
2022-09-25T16:08:33.127Z,0.20
2022-09-25T16:10:59.563Z,0.30
2022-09-25T16:13:25.985Z,0.15
2022-09-25T16:15:52.505Z,0.50
2022-09-25T16:18:18.978Z,0.10
2022-09-25T16:20:45.421Z,0.20
2022-09-25T16:23:11.849Z,0.20
2022-09-25T16:25:38.291Z,0.20
2022-09-25T16:28:04.706Z,0.10
2022-09-25T16:30:31.147Z,0.28
2022-09-25T16:32:57.576Z,0.80
2022-09-25T16:35:23.999Z,1.52
2022-09-25T16:37:50.422Z,1.10
2022-09-25T16:40:16.891Z,1.05
2022-09-25T16:42:43.323Z,0.70
2022-09-25T16:45:09.776Z,0.60
2022-09-25T16:47:36.225Z,0.40
2022-09-25T16:50:02.677Z,0.40
2022-09-25T16:52:29.121Z,0.38
2022-09-25T16:54:55.578Z,0.30
2022-09-25T16:57:22.035Z,0.63
2022-09-25T16:59:48.475Z,0.90
2022-09-25T17:02:15.068Z,1.48
2022-09-25T17:04:41.638Z,1.40
2022-09-25T17:07:08.078Z,1.00
2022-09-25T17:09:34.525Z,1.10
2022-09-25T17:12:00.986Z,1.00
2022-09-25T17:14:27.412Z,1.00
2022-09-25T17:16:53.863Z,0.93
2022-09-25T17:19:20.275Z,0.45
2022-09-25T17:21:46.725Z,0.40
2022-09-25T17:24:13.150Z,0.40
2022-09-25T17:26:39.615Z,0.38
2022-09-25T17:29:06.051Z,0.90
2022-09-25T17:31:32.564Z,1.30
2022-09-25T17:33:59.064Z,1.23
2022-09-25T17:36:25.495Z,1.23
2022-09-25T17:38:51.929Z,1.70
2022-09-25T17:41:18.361Z,2.42
2022-09-25T17:43:44.792Z,2.10
2022-09-25T17:46:11.284Z,1.80
2022-09-25T17:48:37.774Z,1.95
2022-09-25T17:51:04.210Z,1.48
2022-09-25T17:53:30.623Z,1.55
2022-09-25T17:55:57.056Z,1.40
2022-09-25T17:58:23.476Z,1.00
2022-09-25T18:00:49.916Z,0.98
2022-09-25T18:03:16.457Z,0.88
2022-09-25T18:05:42.985Z,0.80
2022-09-25T18:08:09.415Z,0.50
2022-09-25T18:10:35.855Z,0.60
2022-09-25T18:13:02.268Z,0.57
2022-09-25T18:15:28.811Z,0.40
2022-09-25T18:17:55.278Z,0.40
2022-09-25T18:20:21.700Z,0.50
2022-09-25T18:22:48.148Z,0.15
2022-09-25T18:25:14.572Z,0.40
2022-09-25T18:27:41.015Z,0.30
2022-09-25T18:30:07.451Z,0.60
2022-09-25T18:32:33.890Z,0.20
2022-09-25T18:35:00.315Z,0.30
2022-09-25T18:37:26.748Z,0.30
2022-09-25T18:39:53.170Z,0.20
2022-09-25T18:42:19.602Z,0.20
2022-09-25T18:44:46.035Z,0.20
2022-09-25T18:47:12.481Z,0.20
2022-09-25T18:49:38.901Z,0.30
2022-09-25T18:52:05.347Z,0.40
2022-09-25T18:54:31.772Z,0.52
2022-09-25T18:56:58.237Z,0.30
2022-09-25T18:59:24.662Z,0.38
2022-09-25T19:01:51.183Z,0.30
2022-09-25T19:04:17.702Z,0.50
2022-09-25T19:06:44.133Z,0.60
2022-09-25T19:09:16.121Z,0.20
2022-09-25T19:11:43.242Z,0.40
2022-09-25T19:14:09.670Z,0.20
2022-09-25T19:16:38.479Z,0.60
2022-09-25T19:19:05.285Z,0.60
2022-09-25T19:21:31.774Z,0.70
2022-09-25T19:23:58.199Z,0.77
2022-09-25T19:26:24.637Z,0.55
2022-09-25T19:28:51.049Z,0.40
2022-09-25T19:31:17.591Z,0.50
2022-09-25T19:33:44.107Z,0.60
2022-09-25T19:36:10.532Z,0.60
2022-09-25T19:38:36.984Z,0.45
2022-09-25T19:41:03.430Z,0.70
2022-09-25T19:43:29.983Z,0.47
2022-09-25T19:45:56.450Z,0.50
2022-09-25T19:48:22.942Z,0.43
2022-09-25T19:50:49.382Z,0.22
2022-09-25T19:53:15.835Z,0.40
2022-09-25T19:55:42.254Z,0.68
2022-09-25T19:58:08.676Z,0.88
2022-09-25T20:00:35.098Z,1.00
2022-09-25T20:03:01.599Z,1.70
2022-09-25T20:05:28.104Z,2.00
2022-09-25T20:07:54.534Z,1.15
2022-09-25T20:10:20.960Z,1.25
2022-09-25T20:12:47.396Z,1.17
2022-09-25T20:15:13.824Z,1.00
2022-09-25T20:17:40.265Z,0.88
2022-09-25T20:20:06.698Z,1.20
2022-09-25T20:22:33.134Z,0.75
2022-09-25T20:24:59.553Z,1.20
2022-09-25T20:27:25.972Z,0.93
2022-09-25T20:29:52.405Z,0.90
2022-09-25T20:32:18.838Z,0.75
2022-09-25T20:34:45.258Z,0.80
2022-09-25T20:37:11.711Z,0.88
2022-09-25T20:39:38.141Z,0.60
2022-09-25T20:42:04.632Z,0.80
2022-09-25T20:44:31.056Z,0.88
2022-09-25T20:46:57.487Z,0.70
2022-09-25T20:49:23.918Z,0.50
2022-09-25T20:51:50.355Z,0.80
2022-09-25T20:54:16.794Z,0.82
2022-09-25T20:56:43.229Z,0.57
2022-09-25T20:59:09.682Z,0.88
2022-09-25T21:01:36.150Z,0.75
2022-09-25T21:04:02.627Z,0.40
2022-09-25T21:06:29.050Z,0.50
2022-09-25T21:08:55.489Z,0.47
2022-09-25T21:11:21.910Z,0.38
2022-09-25T21:13:48.336Z,0.50
2022-09-25T21:16:14.895Z,0.52
2022-09-25T21:18:41.361Z,0.57
2022-09-25T21:21:07.784Z,0.47
2022-09-25T21:23:34.230Z,0.50
2022-09-25T21:26:00.645Z,0.73
2022-09-25T21:28:27.094Z,0.70
2022-09-25T21:30:53.547Z,0.70
2022-09-25T21:33:20.012Z,0.40
2022-09-25T21:35:46.451Z,0.40
2022-09-25T21:38:12.895Z,0.50
2022-09-25T21:40:39.333Z,0.60
2022-09-25T21:43:05.810Z,0.40
2022-09-25T21:45:32.231Z,0.35
2022-09-25T21:47:58.681Z,0.30
2022-09-25T21:50:25.113Z,0.50
2022-09-25T21:52:51.548Z,0.57
2022-09-25T21:55:17.982Z,0.50
2022-09-25T21:57:44.429Z,0.45
2022-09-25T22:00:10.852Z,0.60
2022-09-25T22:02:37.325Z,0.40
2022-09-25T22:05:03.801Z,0.40
2022-09-25T22:07:30.227Z,0.25
2022-09-25T22:09:56.647Z,0.40
2022-09-25T22:12:23.065Z,0.52
2022-09-25T22:14:49.506Z,0.43
2022-09-25T22:17:15.995Z,0.60
2022-09-25T22:19:42.447Z,0.50
2022-09-25T22:22:08.873Z,0.80
2022-09-25T22:24:35.343Z,0.60
2022-09-25T22:27:01.771Z,0.50
2022-09-25T22:29:28.217Z,0.40
2022-09-25T22:31:54.644Z,0.40
2022-09-25T22:34:21.096Z,0.43
2022-09-25T22:36:47.537Z,0.45
2022-09-25T22:39:14.114Z,0.43
2022-09-25T22:41:40.616Z,0.50
2022-09-25T22:44:07.062Z,0.52
2022-09-25T22:46:33.517Z,0.70
2022-09-25T22:48:59.981Z,0.55
2022-09-25T22:51:26.427Z,0.40
2022-09-25T22:53:52.873Z,0.40
2022-09-25T22:56:19.311Z,0.40
2022-09-25T22:58:45.748Z,0.30
2022-09-25T23:01:12.242Z,0.52
2022-09-25T23:03:38.727Z,0.40
2022-09-25T23:06:05.152Z,0.22
2022-09-25T23:08:31.601Z,0.40
2022-09-25T23:11:07.254Z,0.20
2022-09-25T23:13:34.250Z,0.40
2022-09-25T23:16:00.666Z,0.50
2022-09-25T23:18:27.098Z,0.40
2022-09-25T23:20:53.518Z,0.20
2022-09-25T23:23:19.949Z,0.40
2022-09-25T23:25:46.369Z,0.45
2022-09-25T23:28:12.795Z,0.70
2022-09-25T23:30:39.261Z,0.35
2022-09-25T23:33:05.749Z,0.40
2022-09-25T23:35:32.188Z,0.47
2022-09-25T23:37:58.615Z,0.40
2022-09-25T23:40:25.096Z,0.20
2022-09-25T23:42:51.569Z,0.40
2022-09-25T23:45:17.999Z,0.40
2022-09-25T23:47:44.504Z,0.40
2022-09-25T23:50:10.950Z,0.45
2022-09-25T23:52:37.381Z,0.30
2022-09-25T23:55:03.820Z,0.40
2022-09-25T23:57:30.234Z,0.30
2022-09-25T23:59:56.686Z,0.30
